TimeMST,TemperatureF,Dew PointF,Humidity,Sea Level PressureIn,VisibilityMPH,Wind Direction,Wind SpeedMPH,Gust SpeedMPH,PrecipitationIn,Events,Conditions,WindDirDegrees,DateUTC
12:53 AM,54.0,15.1,22,29.91,10.0,SSE,6.9,-,N/A,,Clear,150,2013-10-18 07:53:00
1:53 AM,52.0,16.0,24,29.91,10.0,SE,8.1,-,N/A,,Clear,140,2013-10-18 08:53:00
2:53 AM,51.1,16.0,25,29.91,10.0,SE,8.1,-,N/A,,Clear,140,2013-10-18 09:53:00
3:53 AM,50.0,18.0,28,29.92,10.0,SE,6.9,-,N/A,,Clear,140,2013-10-18 10:53:00
4:53 AM,50.0,16.0,26,29.93,10.0,SE,9.2,-,N/A,,Clear,140,2013-10-18 11:53:00
5:53 AM,48.9,16.0,27,29.95,10.0,SE,6.9,-,N/A,,Clear,140,2013-10-18 12:53:00
6:53 AM,48.9,17.1,28,29.96,10.0,SSE,6.9,-,N/A,,Clear,150,2013-10-18 13:53:00
7:53 AM,53.1,18.0,25,29.98,10.0,SSE,6.9,-,N/A,,Clear,150,2013-10-18 14:53:00
8:53 AM,60.1,19.0,20,29.99,10.0,Variable,3.5,-,N/A,,Clear,0,2013-10-18 15:53:00
9:53 AM,66.0,19.9,17,29.98,10.0,Variable,3.5,-,N/A,,Clear,0,2013-10-18 16:53:00
10:53 AM,71.1,19.9,14,29.97,10.0,Calm,Calm,-,N/A,,Clear,0,2013-10-18 17:53:00
11:53 AM,75.0,19.9,13,29.94,10.0,WNW,8.1,-,N/A,,Clear,290,2013-10-18 18:53:00
12:53 PM,78.1,19.9,11,29.92,10.0,Calm,Calm,-,N/A,,Clear,0,2013-10-18 19:53:00
1:53 PM,80.1,19.0,10,29.90,10.0,North,5.8,-,N/A,,Clear,350,2013-10-18 20:53:00
2:53 PM,82.0,19.0,10,29.88,10.0,North,5.8,-,N/A,,Clear,360,2013-10-18 21:53:00
3:53 PM,81.0,18.0,10,29.88,10.0,WNW,8.1,-,N/A,,Clear,300,2013-10-18 22:53:00
4:53 PM,81.0,17.1,9,29.89,10.0,WNW,8.1,-,N/A,,Clear,290,2013-10-18 23:53:00
5:53 PM,77.0,19.0,11,29.91,10.0,NNW,8.1,-,N/A,,Clear,330,2013-10-19 00:53:00
6:53 PM,73.0,19.9,14,29.94,10.0,NNW,6.9,-,N/A,,Clear,340,2013-10-19 01:53:00
7:53 PM,71.1,21.0,15,29.95,10.0,NW,5.8,-,N/A,,Clear,310,2013-10-19 02:53:00
8:53 PM,70.0,19.0,14,29.94,10.0,WNW,6.9,-,N/A,,Clear,300,2013-10-19 03:53:00
9:53 PM,64.0,19.9,18,29.96,10.0,SSE,4.6,-,N/A,,Clear,160,2013-10-19 04:53:00
10:53 PM,59.0,19.9,22,29.96,10.0,Calm,Calm,-,N/A,,Clear,0,2013-10-19 05:53:00
11:53 PM,57.9,19.0,22,29.95,10.0,SE,8.1,-,N/A,,Clear,140,2013-10-19 06:53:00